General Aviation Weather

Text Reports

Enter one or more of the following location identifiers separated by a space:

Zip Code, Four-Character ICAO or Three-Character IATA airport codes.

METAR - Aviation Routine Weather Report
KOXC - Oxford, Connecticut
Updated at 3:50 PM GMT on June 03, 2015 (11:50 AM EDT):
METAR KOXC 031550Z 03004KT 10SM SCT020 16/07 A3024
TAF - Terminal Area Forecast
KOXC - Oxford, Connecticut
Updated at 3:50 PM GMT on June 03, 2015 (11:50 AM EDT):
No TAF is currently available for this location.
Decoded:
No decoded TAF is available.
PIREP - Pilot Weather Report
KOXC - Oxford, Connecticut
Updated at 3:50 PM GMT on June 03, 2015 (11:50 AM EDT):
No PIREP is currently available for this location.
AIRMET - Airmens Meteorological Information
KOXC - Oxford, Connecticut
Updated at 3:50 PM GMT on June 03, 2015 (11:50 AM EDT):
No AIRMET is currently available for this location.
SIGMET - Significant Meteorological Information
KOXC - Oxford, Connecticut
Updated at 3:50 PM GMT on June 03, 2015 (11:50 AM EDT):
No SIGMET is currently available for this location.
NOTAM - Notice to Airmen
KOXC - Oxford, Connecticut
Updated at 3:50 PM GMT on June 03, 2015 (11:50 AM EDT):
No NOTAM is currently available for this location.
Forecast Area
KOXC - Oxford, Connecticut
Updated at 3:50 PM GMT on June 03, 2015 (11:50 AM EDT):
No NOTAM is currently available for this location.
Aviation Weather Maps